Latest Weather Observations for Argyle

IDD60801

Issued at 7:31 pm CST Thursday 28 May 2015 (issued every 30 minutes, with the page automatically refreshed every 10 minutes)

About weather observations | Map of weather stations | Latest weather observations for NT | Other Formats
Station Details ID: 002064 Name: ARGYLE AERODROME Lat: -16.64 Lon: 128.45 Height: 164.0 m
Data from the previous 72 hours. | See also: Recent months at Argyle
Date/Time
CST
Temp
°C
App
Temp
°C
Dew
Point
Rel
Hum
%
Delta-T
°C
Wind Press
QNH
hPa
Press
MSL
hPa
Rain
since 9 am
mm
Dir
 
Spd
km/h
Gust
km/h
Spd
kts
Gust
kts
28/07:00pm 31.1 29.6 10.4 28 11.9 N 9 11 5 6 1013.6 - 0.0
28/06:30pm 32.3 30.2 9.8 25 12.9 N 11 15 6 8 1013.3 - 0.0
28/06:00pm 33.4 30.9 9.8 23 13.6 N 13 17 7 9 1012.9 - 0.0
28/05:30pm 34.2 32.9 9.8 22 14.1 NNE 7 15 4 8 1012.7 - 0.0
28/05:00pm 34.4 32.9 10.5 23 14.0 NE 9 15 5 8 1012.6 - 0.0
28/04:30pm 34.8 33.8 10.4 22 14.3 W 6 11 3 6 1012.6 1011.7 0.0
28/04:00pm 34.4 32.3 9.6 22 14.3 E 11 20 6 11 1012.5 - 0.0
28/03:30pm 34.3 32.5 9.5 22 14.3 NNE 9 17 5 9 1012.6 - 0.0
28/03:00pm 34.3 32.1 9.5 22 14.3 N 11 17 6 9 1012.8 - 0.0
28/02:30pm 33.7 32.1 10.3 24 13.6 ESE 9 20 5 11 1013.2 - 0.0
28/02:00pm 33.6 31.0 9.3 22 13.9 ENE 13 20 7 11 1013.6 - 0.0
28/01:30pm 33.3 30.9 10.2 24 13.4 NNE 13 20 7 11 1014.1 1013.2 0.0
28/01:00pm 34.0 31.4 10.6 24 13.7 NNE 15 20 8 11 1014.7 - 0.0
28/12:30pm 32.7 30.7 10.2 25 13.0 E 11 20 6 11 1015.1 - 0.0
28/12:00pm 32.7 30.6 9.9 24 13.1 ENE 11 17 6 9 1015.4 - 0.0
28/11:00am 31.0 29.7 9.2 26 12.3 ESE 6 7 3 4 1015.9 - 0.0
28/10:00am 29.3 27.9 9.6 29 11.1 SE 7 9 4 5 1016.1 - 0.0
28/09:30am 28.7 28.3 9.7 30 10.7 E 2 7 1 4 1016.2 - 0.0
28/08:30am 25.1 25.5 11.2 41 7.9 CALM 0 0 0 0 1015.7 - 0.0
28/08:00am 22.6 23.0 11.4 49 6.3 CALM 0 0 0 0 1015.4 - 0.0
28/07:00am 20.1 19.0 10.6 54 5.2 W 7 9 4 5 1014.8 - 0.0
28/06:30am 21.7 20.5 9.7 46 6.5 SW 6 7 3 4 1014.5 - 0.0
28/06:00am 21.1 19.5 10.3 50 5.9 SSE 9 11 5 6 1014.3 - 0.0
28/05:30am 21.6 21.0 11.8 53 5.5 S 6 7 3 4 1014.0 - 0.0
28/05:00am 22.7 22.0 11.3 48 6.4 S 6 7 3 4 1014.1 - 0.0
28/04:30am 23.6 22.1 10.5 43 7.3 S 9 11 5 6 1014.1 1013.2 0.0
28/04:00am 22.9 21.3 10.2 44 7.0 S 9 11 5 6 1014.1 - 0.0
28/03:30am 23.0 22.3 11.3 47 6.6 S 6 7 3 4 1014.0 - 0.0
28/03:00am 24.1 22.9 10.2 41 7.7 SW 7 7 4 4 1014.2 - 0.0
28/02:30am 23.4 21.7 10.0 42 7.4 W 9 11 5 6 1014.4 - 0.0
28/01:00am 24.1 23.0 10.7 43 7.5 ESE 7 7 4 4 1015.0 - 0.0
28/12:30am 23.3 21.8 10.7 45 7.0 ESE 9 11 5 6 1015.1 - 0.0
28/12:00am 24.3 23.1 10.3 41 7.8 SE 7 9 4 5 1014.9 - 0.0
 
Date/Time
CST
Temp
°C
App
Temp
°C
Dew
Point
Rel
Hum
%
Delta-T
°C
Wind Press
QNH
hPa
Press
MSL
hPa
Rain
since 9 am
mm
Dir
 
Spd
km/h
Gust
km/h
Spd
kts
Gust
kts
27/11:30pm 25.1 24.2 10.7 40 8.1 SSW 6 7 3 4 1015.1 - 0.0
27/11:00pm 26.5 25.2 9.8 35 9.3 WSW 7 7 4 4 1015.2 - 0.0
27/10:30pm 26.9 25.5 9.7 34 9.6 W 7 7 4 4 1015.1 1014.2 0.0
27/10:00pm 26.7 25.6 9.9 34 9.4 WNW 6 7 3 4 1015.0 - 0.0
27/09:30pm 27.7 26.3 9.4 31 10.2 WNW 7 7 4 4 1014.9 - 0.0
27/09:00pm 27.3 26.1 10.3 34 9.6 WNW 7 7 4 4 1014.8 - 0.0
27/08:30pm 28.2 26.8 9.4 30 10.5 WNW 7 7 4 4 1014.4 - 0.0
27/08:00pm 28.9 27.4 9.2 29 11.0 N 7 9 4 5 1014.1 - 0.0
27/07:30pm 30.4 28.4 8.7 26 12.1 N 9 11 5 6 1013.7 1012.8 0.0
27/07:00pm 30.8 28.9 8.9 25 12.3 N 9 9 5 5 1013.2 - 0.0
27/06:30pm 31.8 29.9 9.0 24 12.9 N 9 13 5 7 1012.8 - 0.0
27/06:00pm 33.0 31.5 9.1 23 13.6 NE 7 9 4 5 1012.6 - 0.0
27/05:30pm 33.8 31.8 8.6 21 14.3 ENE 9 13 5 7 1012.6 - 0.0
27/05:00pm 34.3 32.4 8.9 21 14.5 E 9 17 5 9 1012.4 - 0.0
27/04:30pm 34.1 31.9 7.9 20 14.7 NE 9 19 5 10 1012.4 1011.5 0.0
27/04:00pm 34.0 31.5 8.1 20 14.6 NNE 11 20 6 11 1012.4 - 0.0
27/03:30pm 34.4 30.9 7.3 18 15.1 NNE 15 24 8 13 1012.5 - 0.0
27/03:00pm 34.3 31.3 7.7 19 14.9 E 13 19 7 10 1012.7 - 0.0
27/02:30pm 34.5 31.5 7.5 19 15.1 E 13 26 7 14 1013.2 - 0.0
27/02:00pm 33.8 30.3 7.3 19 14.7 E 15 26 8 14 1013.7 - 0.0
27/01:30pm 34.0 30.9 7.1 19 14.9 E 13 24 7 13 1014.4 1013.5 0.0
27/01:00pm 32.8 28.9 6.9 20 14.2 ESE 17 30 9 16 1015.1 - 0.0
27/12:30pm 33.6 45.0 33.1 97 0.4 E 7 15 4 8 1015.7 - 0.0
27/12:00pm 31.9 41.3 31.8 99 0.1 ESE 11 19 6 10 1016.3 - 0.0
27/11:30am 31.4 40.0 31.3 99 0.1 ENE 13 20 7 11 1016.8 - 0.0
27/11:00am 30.5 38.2 30.2 98 0.2 E 13 19 7 10 1017.3 - 0.0
27/10:30am 29.7 35.9 29.7 100 0.0 E 19 30 10 16 1017.6 1016.8 0.0
27/10:00am 28.9 35.6 28.9 100 0.0 ENE 13 20 7 11 1017.7 - 0.0
27/09:30am 28.2 32.7 24.0 78 2.9 ESE 7 13 4 7 1017.5 - 0.0
27/09:00am 26.8 26.2 9.0 32 9.8 S 2 7 1 4 1017.3 - 0.0
27/08:30am 25.7 25.9 10.6 38 8.5 CALM 0 0 0 0 1016.9 - 0.0
27/08:00am 23.3 23.4 10.0 43 7.3 CALM 0 0 0 0 1016.8 - 0.0
27/07:30am 23.0 21.4 8.1 38 7.9 WSW 6 7 3 4 1016.5 1015.6 0.0
27/07:00am 22.4 20.9 8.5 41 7.4 W 6 7 3 4 1016.1 - 0.0
27/06:30am 21.4 19.8 8.6 44 6.8 WSW 7 9 4 5 1015.9 - 0.0
27/06:00am 22.2 21.9 8.7 42 7.2 CALM 0 6 0 3 1015.7 - 0.0
27/05:30am 22.1 21.7 8.3 41 7.3 CALM 0 0 0 0 1015.8 - 0.0
27/05:00am 22.0 21.3 8.7 42 7.1 N 2 6 1 3 1015.5 - 0.0
27/04:30am 21.6 19.4 7.9 41 7.2 WSW 9 9 5 5 1015.4 1014.5 0.0
27/04:00am 22.0 21.5 7.7 39 7.5 CALM 0 0 0 0 1015.6 - 0.0
27/03:30am 21.5 19.9 8.2 42 7.0 SSW 6 7 3 4 1015.7 - 0.0
27/03:00am 22.7 21.3 8.9 41 7.4 ESE 6 9 3 5 1015.8 - 0.0
27/02:30am 22.5 21.4 9.9 44 6.9 E 6 7 3 4 1016.2 - 0.0
27/02:00am 22.0 20.3 8.4 41 7.2 E 7 9 4 5 1016.5 - 0.0
27/01:30am 23.3 21.4 7.5 36 8.3 WSW 7 9 4 5 1016.6 1015.7 0.0
27/01:00am 23.9 21.7 7.9 36 8.5 SE 9 9 5 5 1016.8 - 0.0
27/12:30am 23.5 21.4 8.1 37 8.2 ESE 9 11 5 6 1017.0 - 0.0
27/12:00am 25.1 22.8 7.4 32 9.4 SSE 9 17 5 9 1017.1 - 0.0
 
Date/Time
CST
Temp
°C
App
Temp
°C
Dew
Point
Rel
Hum
%
Delta-T
°C
Wind Press
QNH
hPa
Press
MSL
hPa
Rain
since 9 am
mm
Dir
 
Spd
km/h
Gust
km/h
Spd
kts
Gust
kts
26/11:30pm 25.0 23.1 7.7 33 9.2 SSW 7 11 4 6 1017.4 - 0.0
26/11:00pm 25.3 23.8 9.0 35 8.9 SW 7 9 4 5 1017.4 - 0.0
26/10:30pm 26.8 25.2 8.2 31 10.1 SSW 6 9 3 5 1017.3 1016.5 0.0
26/10:00pm 26.9 24.2 7.5 29 10.4 SW 11 15 6 8 1017.1 - 0.0
26/09:30pm 27.8 25.5 7.4 27 11.0 SW 9 9 5 5 1016.9 - 0.0
26/09:00pm 27.6 25.0 7.6 28 10.8 WSW 11 11 6 6 1016.8 - 0.0
26/08:30pm 28.2 25.4 6.9 26 11.4 WSW 11 11 6 6 1016.6 - 0.0
26/08:00pm 28.4 26.0 7.0 26 11.5 WNW 9 9 5 5 1016.4 - 0.0
26/07:30pm 28.6 26.2 7.0 25 11.6 WNW 9 9 5 5 1016.1 1015.2 0.0
26/07:00pm 30.5 28.1 6.9 22 12.8 N 9 9 5 5 1015.8 - 0.0
26/06:30pm 31.3 28.9 6.8 21 13.3 N 9 11 5 6 1015.5 - 0.0
26/06:00pm 32.6 30.3 5.9 19 14.4 NNE 7 9 4 5 1015.1 - 0.0
26/05:30pm 33.2 30.1 5.5 17 14.9 NE 11 15 6 8 1014.8 - 0.0
26/05:00pm 33.4 31.2 5.2 17 15.1 ENE 6 17 3 9 1014.8 - 0.0
26/04:30pm 33.6 31.6 7.2 19 14.6 E 7 13 4 7 1014.8 1013.9 0.0
26/04:00pm 33.7 31.0 5.5 17 15.2 N 9 17 5 9 1014.7 - 0.0
26/03:30pm 33.6 30.1 5.6 17 15.1 ENE 13 20 7 11 1014.8 - 0.0
26/03:00pm 33.5 30.2 4.4 16 15.4 NNE 11 19 6 10 1015.2 - 0.0
26/02:30pm 33.4 31.3 5.9 18 14.9 E 6 13 3 7 1015.6 - 0.0
26/02:00pm 33.1 30.5 4.2 16 15.2 E 7 17 4 9 1016.0 - 0.0
26/01:30pm 32.5 29.6 4.7 17 14.7 E 9 17 5 9 1016.7 1015.8 0.0
26/01:00pm 31.6 28.5 3.8 17 14.4 ENE 9 17 5 9 1017.4 - 0.0
26/12:30pm 31.2 27.1 2.5 16 14.5 NE 13 20 7 11 1018.1 - 0.0
26/12:00pm 30.9 27.4 3.7 18 14.0 E 11 17 6 9 1018.8 - 0.0
26/11:30am 29.7 25.6 2.1 17 13.7 E 13 20 7 11 1019.1 - 0.0
26/11:00am 29.1 26.3 1.9 17 13.4 E 6 15 3 8 1019.7 - 0.0
26/10:30am 27.4 23.9 1.2 18 12.6 E 9 13 5 7 1020.1 1019.2 0.0
26/10:00am 26.7 23.5 0.9 18 12.3 ESE 7 11 4 6 1020.0 - 0.0
26/09:30am 25.5 22.5 1.7 21 11.4 ESE 7 9 4 5 1019.8 - 0.0
26/09:00am 24.4 21.4 1.7 22 10.8 E 7 9 4 5 1019.6 - 0.0
26/08:30am 23.0 20.3 2.5 26 9.8 E 6 7 3 4 1019.6 - 0.0
26/08:00am 19.8 18.2 2.7 32 8.0 CALM 0 6 0 3 1019.3 - 0.0
26/07:30am 19.7 17.8 2.6 32 8.0 SSW 2 7 1 4 1019.0 1018.1 0.0
26/07:00am 19.8 18.1 1.7 30 8.3 CALM 0 0 0 0 1018.7 - 0.0
26/06:30am 19.8 16.6 0.7 28 8.6 W 7 7 4 4 1018.1 - 0.0
26/06:00am 20.0 17.0 1.1 28 8.6 WNW 6 7 3 4 1017.8 - 0.0
26/05:30am 19.4 16.2 0.7 28 8.4 WNW 7 9 4 5 1017.8 - 0.0
26/05:00am 20.1 17.4 2.9 32 8.1 SSW 6 7 3 4 1017.7 - 0.0
26/04:30am 18.3 15.3 1.8 33 7.5 WSW 7 9 4 5 1017.7 1016.9 0.0
26/04:00am 19.7 18.1 2.2 31 8.1 CALM 0 0 0 0 1017.6 - 0.0
26/03:30am 20.0 17.9 1.4 29 8.5 SSE 2 6 1 3 1018.0 - 0.0
26/03:00am 20.2 16.6 0.7 27 8.8 WSW 9 11 5 6 1017.9 - 0.0
26/02:30am 19.5 16.5 1.9 31 8.1 WSW 7 9 4 5 1018.2 - 0.0
26/02:00am 18.6 16.5 1.7 32 7.7 E 2 7 1 4 1018.3 - 0.0
26/01:30am 20.7 17.3 1.7 28 8.8 ESE 9 11 5 6 1018.3 1017.5 0.0
26/01:00am 19.8 16.4 1.7 30 8.3 ESE 9 11 5 6 1018.4 - 0.0
26/12:30am 20.7 18.1 3.3 31 8.3 WSW 6 7 3 4 1018.5 - 0.0
26/12:00am 21.7 20.1 2.5 28 9.1 CALM 0 0 0 0 1018.8 - 0.0
 
Date/Time
CST
Temp
°C
App
Temp
°C
Dew
Point
Rel
Hum
%
Delta-T
°C
Wind Press
QNH
hPa
Press
MSL
hPa
Rain
since 9 am
mm
Dir
 
Spd
km/h
Gust
km/h
Spd
kts
Gust
kts
25/11:30pm 21.7 19.4 2.8 28 9.0 SE 4 6 2 3 1018.9 - 0.0
25/11:00pm 23.4 20.3 1.1 23 10.4 SSE 7 7 4 4 1018.8 - 0.0
25/10:30pm 23.1 20.0 1.3 23 10.2 SSW 7 9 4 5 1018.7 1017.8 0.0
25/10:00pm 24.1 21.0 1.1 22 10.8 SSW 7 9 4 5 1018.7 - 0.0
25/09:30pm 24.1 20.6 1.4 22 10.7 SW 9 11 5 6 1018.4 - 0.0

Other Formats:

Comma delimited format used in spreadsheet applications
http://www.bom.gov.au/fwo/IDD60801/IDD60801.94217.axf

JavaScript Object Notation format (JSON) in row-major order
http://www.bom.gov.au/fwo/IDD60801/IDD60801.94217.json